Muskoka Airport
CYQA : now visible

Airfield :











YOU CAN JOIN US ON...

 
LOGIN :

Register | Disclaimer

   EN    FR    IT 

 









Legend :    VFR   Marginal VFR   IFR   Intensive IFR   Very Intensive IFR
Visi :
Ceiling :
>= 8 km
>= 3000ft
5 to 8 km
1000 to 3000 ft
1500m to 5 km
500 to 1000 ft
800 to 1500m
200 to 500 ft
< 800m
< 200 ft
Symbols :   Thunderstorms  Fog  Heavy snow  Heavy precipitations  Wind > 20 kt






- Airport Elevation : 925 ft
- IATA code : YQA


CYQA - Muskoka

CURRENT METAR :
  • 241115Z AUTO 32008KT 9SM BKN015 01/M01 A3006 RMK SLP188

EXPIRED METARs :
  • 241100Z AUTO 32010KT 9SM -RA OVC014 01/M00 A3005 RMK SLP185
  • 241059Z AUTO 32009KT 9SM -RA OVC014 01/M00 A3005 RMK SLP184
  • 241053Z AUTO 32008KT 9SM OVC014 01/M00 A3005 RMK SLP184
  • 241041Z AUTO 31010G15KT 9SM -RA BKN014 BKN020 01/M00 A3005 RMK SLP182
  • 241000Z AUTO 32010KT 9SM BKN012 BKN016 BKN026 01/00 A3002 RMK SLP173
  • 240952Z AUTO 31010KT 9SM SCT012 BKN022 BKN026 01/00 A3001 RMK SLP171
  • 240949Z AUTO 32010G15KT 9SM SCT012 OVC026 01/00 A3001 RMK SLP171
  • 240905Z AUTO 31012G17KT 9SM SCT012 02/00 A2998 RMK SLP160
  • 240837Z AUTO 31011G17KT 9SM BKN014 OVC024 02/01 A2996 RMK SLP152
  • 240825Z AUTO 32013G20KT 5SM -RA BR OVC014 02/01 A2996 RMK SLP150

Expired Forecast.
CZYZ FIR / North America



MET'MAP, your aeronautical weather chart ! - Copyright ORBIFLY December 2007 - Disclaimer

ORBIFLY MET'MAP TEAM :

Programming & Development : Alexandra Zaïnal
Concept & original design : Baudouin d'Aumeries
Assistance for programming : Marc-Olivier Méhu
Technical & hardware support : Manuel Goepfert

Contact : metmap@orbifly.com




SOURCES & CREDITS :

   NOAA       Earth
Advisory